Time;durP1;ratioP1;P1;durP2;ratioP2;P2;SDS_P1;SDS_P2;PMS_P1;PMS_P2;Temp;Humidity;BMP_temperature;BMP_pressure;BME280_temperature;BME280_humidity;BME280_pressure;Samples;Min_cycle;Max_cycle;Signal;HPM_P1;HPM_P2
2021/08/12 00:01:26;;;;;;;8.20;5.30;;;;;;;14.32;100.00;101187.38;5239023;28;20024;-79
2021/08/12 00:03:57;;;;;;;7.80;5.28;;;;;;;14.08;100.00;101188.31;5259055;28;20020;-79
2021/08/12 00:06:27;;;;;;;8.00;5.50;;;;;;;14.05;100.00;101192.84;5236411;28;20394;-78
2021/08/12 00:08:57;;;;;;;9.32;5.50;;;;;;;13.86;100.00;101195.34;5245825;28;20033;-79
2021/08/12 00:11:28;;;;;;;9.88;5.70;;;;;;;13.81;100.00;101196.44;5258211;28;20161;-79
2021/08/12 00:13:58;;;;;;;8.77;5.50;;;;;;;13.96;100.00;101187.94;5233311;22;20051;-79
2021/08/12 00:16:28;;;;;;;8.05;5.00;;;;;;;14.26;100.00;101187.59;5219302;28;20066;-78
2021/08/12 00:18:59;;;;;;;9.18;5.35;;;;;;;14.21;100.00;101193.94;5220149;28;20021;-77
2021/08/12 00:21:31;;;;;;;9.35;5.30;;;;;;;14.03;100.00;101184.16;5222427;28;20024;-79
2021/08/12 00:24:01;;;;;;;9.55;5.72;;;;;;;13.91;100.00;101195.16;5218855;28;20017;-77
2021/08/12 00:26:31;;;;;;;12.90;7.82;;;;;;;13.72;100.00;101189.75;5222759;28;20127;-77
2021/08/12 00:29:04;;;;;;;8.63;5.93;;;;;;;13.76;100.00;101193.13;5236009;28;20274;-77
2021/08/12 00:31:34;;;;;;;10.57;5.57;;;;;;;13.76;100.00;101201.00;5218209;28;20044;-76
2021/08/12 00:34:05;;;;;;;10.05;5.40;;;;;;;13.95;100.00;101187.06;5240002;28;20024;-78
2021/08/12 00:36:35;;;;;;;9.13;5.38;;;;;;;13.91;100.00;101200.44;5213252;28;20032;-79
2021/08/12 00:39:05;;;;;;;8.75;5.28;;;;;;;13.97;100.00;101203.66;5233455;28;20046;-78
2021/08/12 00:41:37;;;;;;;10.80;5.38;;;;;;;13.85;100.00;101200.63;5233169;28;20033;-79
2021/08/12 00:44:08;;;;;;;8.45;5.22;;;;;;;13.94;100.00;101195.88;5221423;28;20020;-79
2021/08/12 00:46:38;;;;;;;7.43;5.25;;;;;;;13.86;100.00;101192.72;5218398;28;20033;-79
2021/08/12 00:49:08;;;;;;;7.97;4.90;;;;;;;13.88;100.00;101196.13;5239084;28;20033;-79
2021/08/12 00:51:39;;;;;;;8.85;5.45;;;;;;;13.73;100.00;101193.25;5236405;28;20029;-79
2021/08/12 00:54:10;;;;;;;8.02;5.38;;;;;;;13.60;100.00;101194.63;5221077;28;20024;-78
2021/08/12 00:56:42;;;;;;;9.75;5.28;;;;;;;13.58;100.00;101196.47;5220192;28;20047;-79
2021/08/12 00:59:12;;;;;;;8.55;5.53;;;;;;;13.58;100.00;101192.03;5224686;28;20025;-77
2021/08/12 01:01:43;;;;;;;8.85;5.55;;;;;;;13.26;100.00;101197.63;5222577;28;20090;-80
2021/08/12 01:04:13;;;;;;;9.00;5.80;;;;;;;13.46;100.00;101197.78;5242420;28;20020;-79
2021/08/12 01:07:01;;;;;;;8.77;5.90;;;;;;;13.61;100.00;101196.34;5240232;28;20115;-80
2021/08/12 01:09:48;;;;;;;9.55;5.70;;;;;;;13.61;100.00;101196.34;5242276;28;20024;-79
2021/08/12 01:12:53;;;;;;;9.13;5.90;;;;;;;13.66;100.00;101194.38;5220875;28;20025;-78
2021/08/12 01:15:37;;;;;;;10.45;5.88;;;;;;;13.72;100.00;101191.53;5222188;28;20095;-79
2021/08/12 01:18:16;;;;;;;9.50;5.82;;;;;;;13.84;100.00;101188.41;5235943;28;20086;-79
2021/08/12 01:20:58;;;;;;;8.93;5.57;;;;;;;13.89;100.00;101189.97;5223486;28;20322;-78
2021/08/12 01:23:30;;;;;;;12.52;5.78;;;;;;;13.87;100.00;101183.91;5223299;28;20027;-79
2021/08/12 01:26:03;;;;;;;9.52;5.70;;;;;;;13.75;100.00;101184.38;5220591;28;20032;-80
2021/08/12 01:28:43;;;;;;;8.85;5.43;;;;;;;13.62;100.00;101185.78;5224088;28;20059;-78
2021/08/12 01:31:39;;;;;;;11.25;6.45;;;;;;;13.48;100.00;101177.56;5218264;28;20194;-79
2021/08/12 01:34:31;;;;;;;10.30;5.93;;;;;;;13.43;100.00;101181.28;5216136;28;20025;-77
2021/08/12 01:37:02;;;;;;;9.20;6.05;;;;;;;13.32;100.00;101183.44;5238229;28;20021;-79
2021/08/12 01:39:34;;;;;;;9.10;6.53;;;;;;;13.37;100.00;101177.09;5240307;28;20294;-79
2021/08/12 01:42:05;;;;;;;8.95;6.30;;;;;;;13.43;100.00;101182.13;5239083;28;20158;-80
2021/08/12 01:44:38;;;;;;;12.60;5.90;;;;;;;13.50;100.00;101175.75;5233653;28;20048;-79
2021/08/12 01:47:09;;;;;;;8.48;5.63;;;;;;;13.50;100.00;101182.75;5241094;28;20020;-78
2021/08/12 01:49:42;;;;;;;10.57;6.30;;;;;;;13.49;100.00;101175.78;5237950;28;20029;-77
2021/08/12 01:52:13;;;;;;;9.10;5.90;;;;;;;13.45;100.00;101175.06;5240677;28;20024;-79
2021/08/12 01:54:44;;;;;;;9.55;5.43;;;;;;;13.50;100.00;101183.63;5221181;28;20111;-75
2021/08/12 01:57:16;;;;;;;9.05;6.15;;;;;;;13.55;100.00;101178.19;5222502;28;20020;-79
2021/08/12 01:59:48;;;;;;;10.25;6.72;;;;;;;13.46;100.00;101173.28;5220295;28;20036;-80
2021/08/12 02:02:19;;;;;;;10.90;6.90;;;;;;;13.47;100.00;101181.13;5218657;28;20040;-77
2021/08/12 02:04:52;;;;;;;8.63;6.10;;;;;;;13.39;100.00;101177.91;5221941;28;20380;-76
2021/08/12 02:07:22;;;;;;;9.18;6.60;;;;;;;13.48;100.00;101166.19;5239402;28;20112;-77
2021/08/12 02:09:52;;;;;;;9.38;6.25;;;;;;;13.55;100.00;101168.53;5215096;28;20061;-79
2021/08/12 02:12:23;;;;;;;10.48;6.68;;;;;;;13.44;100.00;101173.31;5237578;28;20020;-76
2021/08/12 02:14:53;;;;;;;11.18;6.70;;;;;;;13.33;100.00;101174.66;5237153;28;20073;-78
2021/08/12 02:17:23;;;;;;;10.23;7.20;;;;;;;13.30;100.00;101166.88;5221561;28;20069;-79
2021/08/12 02:19:53;;;;;;;11.45;6.47;;;;;;;13.33;100.00;101170.25;5221379;28;20274;-80
2021/08/12 02:22:26;;;;;;;11.13;7.40;;;;;;;13.16;100.00;101167.41;5239846;28;20115;-79
2021/08/12 02:25:05;;;;;;;11.38;7.63;;;;;;;13.20;100.00;101168.16;5220478;28;20021;-78
2021/08/12 02:27:42;;;;;;;10.93;7.38;;;;;;;13.28;100.00;101163.47;5232075;28;20053;-79
2021/08/12 02:30:14;;;;;;;12.30;7.40;;;;;;;13.17;100.00;101163.00;5240192;28;20031;-79
2021/08/12 02:32:46;;;;;;;12.18;7.20;;;;;;;13.25;100.00;101155.72;5237762;28;20468;-79
2021/08/12 02:35:19;;;;;;;13.57;7.28;;;;;;;13.37;100.00;101160.50;5221867;28;20497;-76
2021/08/12 02:37:53;;;;;;;11.20;6.40;;;;;;;13.27;100.00;101157.34;5218522;28;20029;-77
2021/08/12 02:40:27;;;;;;;12.80;7.88;;;;;;;13.18;100.00;101164.72;5232149;28;20017;-79
2021/08/12 02:42:59;;;;;;;11.35;7.35;;;;;;;13.41;100.00;101162.09;5221503;28;20020;-78
2021/08/12 02:45:31;;;;;;;13.55;8.00;;;;;;;13.45;100.00;101154.06;5237343;28;20039;-78
2021/08/12 02:48:03;;;;;;;11.95;8.32;;;;;;;13.44;100.00;101156.72;5221706;28;20056;-77
2021/08/12 02:50:37;;;;;;;12.57;8.15;;;;;;;13.47;100.00;101164.47;5218794;28;20032;-77
2021/08/12 02:53:08;;;;;;;11.05;8.15;;;;;;;13.47;100.00;101153.97;5232465;28;20055;-78
2021/08/12 02:55:40;;;;;;;12.65;8.52;;;;;;;13.36;100.00;101154.38;5221840;28;20028;-79
2021/08/12 02:58:11;;;;;;;14.25;8.13;;;;;;;13.36;100.00;101161.41;5237049;28;20386;-79
2021/08/12 03:00:42;;;;;;;12.25;7.95;;;;;;;13.19;100.00;101162.03;5239374;28;20031;-78
2021/08/12 03:03:17;;;;;;;14.38;8.15;;;;;;;13.49;100.00;101160.91;5237561;28;20104;-79
2021/08/12 03:05:47;;;;;;;10.75;7.70;;;;;;;13.43;100.00;101166.38;5220904;28;20036;-79
2021/08/12 03:08:19;;;;;;;15.93;8.52;;;;;;;13.32;100.00;101159.81;5237372;28;20021;-78
2021/08/12 03:10:52;;;;;;;11.23;8.45;;;;;;;13.24;100.00;101154.00;5220935;28;20039;-79
2021/08/12 03:13:23;;;;;;;12.20;8.43;;;;;;;13.37;100.00;101155.25;5220631;28;20048;-79
2021/08/12 03:15:54;;;;;;;11.73;7.93;;;;;;;13.22;100.00;101156.66;5237306;28;20028;-79
2021/08/12 03:18:24;;;;;;;11.88;7.78;;;;;;;13.47;100.00;101157.47;5220507;28;20039;-79
2021/08/12 03:20:55;;;;;;;11.52;8.43;;;;;;;13.53;100.00;101159.00;5237122;28;20037;-79
2021/08/12 03:23:25;;;;;;;12.55;8.20;;;;;;;13.60;100.00;101158.69;5220204;28;20024;-79
2021/08/12 03:25:55;;;;;;;12.80;8.20;;;;;;;13.40;100.00;101155.97;5236157;28;20053;-80
2021/08/12 03:28:25;;;;;;;13.68;8.98;;;;;;;13.34;100.00;101153.59;5221025;28;20024;-80
2021/08/12 03:30:56;;;;;;;13.75;8.93;;;;;;;13.32;100.00;101155.44;5218852;28;20088;-79
2021/08/12 03:33:26;;;;;;;10.88;8.15;;;;;;;13.21;100.00;101162.84;5220376;28;20051;-80
2021/08/12 03:35:57;;;;;;;13.18;8.40;;;;;;;13.16;100.00;101161.28;5214933;28;20028;-78
2021/08/12 03:38:28;;;;;;;11.32;8.27;;;;;;;13.14;100.00;101165.75;5219714;28;20115;-79
2021/08/12 03:40:58;;;;;;;13.10;7.93;;;;;;;13.11;100.00;101176.34;5218090;28;20272;-80
2021/08/12 03:43:28;;;;;;;14.57;8.52;;;;;;;13.19;100.00;101174.28;5220448;28;20062;-79
2021/08/12 03:45:59;;;;;;;13.25;9.07;;;;;;;13.13;100.00;101167.53;5235817;28;20135;-78
2021/08/12 03:48:29;;;;;;;14.55;8.55;;;;;;;13.33;100.00;101166.75;5220690;28;20115;-80
2021/08/12 03:50:59;;;;;;;14.93;9.10;;;;;;;13.32;100.00;101165.06;5217567;28;20115;-79
2021/08/12 03:53:30;;;;;;;11.32;8.85;;;;;;;13.46;100.00;101166.28;5239416;28;20279;-80
2021/08/12 03:56:00;;;;;;;14.10;8.77;;;;;;;13.52;100.00;101163.41;5216959;28;20029;-79
2021/08/12 03:58:32;;;;;;;13.93;9.15;;;;;;;13.50;100.00;101162.59;5238498;28;20282;-78
2021/08/12 04:01:02;;;;;;;16.63;8.95;;;;;;;13.52;100.00;101160.78;5217101;28;20549;-80
2021/08/12 04:03:33;;;;;;;17.30;9.27;;;;;;;13.36;100.00;101161.41;5221118;28;20017;-79
2021/08/12 04:06:03;;;;;;;12.27;9.27;;;;;;;13.46;100.00;101166.28;5217634;28;20394;-77
2021/08/12 04:08:35;;;;;;;13.50;8.55;;;;;;;13.51;100.00;101166.06;5234446;28;20028;-77
2021/08/12 04:11:05;;;;;;;15.88;9.63;;;;;;;13.54;100.00;101169.44;5217236;28;20126;-77
2021/08/12 04:13:35;;;;;;;15.23;9.80;;;;;;;13.69;100.00;101170.63;5239076;28;20034;-78
2021/08/12 04:16:06;;;;;;;15.23;9.20;;;;;;;13.74;100.00;101179.19;5235048;28;20048;-78
2021/08/12 04:18:36;;;;;;;14.88;9.57;;;;;;;13.78;100.00;101172.91;5221341;28;20111;-79
2021/08/12 04:21:07;;;;;;;13.25;9.90;;;;;;;13.44;100.00;101172.47;5217520;28;20031;-78
2021/08/12 04:23:37;;;;;;;14.57;10.05;;;;;;;13.60;100.00;101163.94;5221255;28;20048;-79
2021/08/12 04:26:07;;;;;;;13.87;9.03;;;;;;;13.79;100.00;101154.47;5216389;28;20033;-79
2021/08/12 04:28:38;;;;;;;15.55;9.38;;;;;;;13.75;100.00;101157.28;5220901;28;20271;-80
2021/08/12 04:31:08;;;;;;;16.38;9.57;;;;;;;13.69;100.00;101157.47;5237187;28;20029;-79
2021/08/12 04:33:38;;;;;;;13.88;9.75;;;;;;;13.83;100.00;101149.91;5225379;28;20059;-80
2021/08/12 04:36:09;;;;;;;11.90;8.47;;;;;;;13.96;100.00;101157.28;5221711;28;20036;-79
2021/08/12 04:38:39;;;;;;;14.23;9.23;;;;;;;14.04;100.00;101163.06;5242641;28;20262;-80
2021/08/12 04:41:09;;;;;;;12.55;8.95;;;;;;;14.02;100.00;101164.03;5239813;28;20479;-80
2021/08/12 04:43:39;;;;;;;12.38;8.90;;;;;;;13.96;100.00;101156.41;5222291;28;20062;-78
2021/08/12 04:46:10;;;;;;;12.00;8.90;;;;;;;14.15;100.00;101157.38;5220277;28;20051;-76
2021/08/12 04:48:40;;;;;;;13.25;8.38;;;;;;;14.31;100.00;101159.38;5241951;28;20093;-77
2021/08/12 04:51:11;;;;;;;14.93;8.73;;;;;;;14.60;100.00;101163.41;5242802;28;20043;-77
2021/08/12 04:53:41;;;;;;;12.65;8.05;;;;;;;14.65;100.00;101172.81;5222171;28;20031;-79
2021/08/12 04:56:12;;;;;;;16.50;8.98;;;;;;;14.46;100.00;101171.00;5225448;28;20108;-80
2021/08/12 04:58:42;;;;;;;13.05;8.93;;;;;;;14.49;100.00;101173.50;5242109;28;20028;-79
2021/08/12 05:01:13;;;;;;;11.93;8.05;;;;;;;14.60;100.00;101187.06;5240348;28;20029;-79
2021/08/12 05:03:43;;;;;;;10.47;7.53;;;;;;;15.17;100.00;101180.16;5223935;28;20029;-80
2021/08/12 05:06:15;;;;;;;11.75;8.13;;;;;;;15.00;100.00;101178.25;5239123;28;20280;-78
2021/08/12 05:08:45;;;;;;;12.15;7.72;;;;;;;15.72;96.13;101177.56;5223341;28;20123;-79
2021/08/12 05:11:15;;;;;;;9.77;6.70;;;;;;;16.96;90.45;101170.47;5222646;28;20056;-80
2021/08/12 05:13:47;;;;;;;13.30;6.93;;;;;;;17.60;86.48;101168.75;5222634;28;20491;-80
2021/08/12 05:16:17;;;;;;;9.82;6.45;;;;;;;19.04;82.03;101158.47;5218598;28;20073;-80
2021/08/12 05:18:47;;;;;;;9.05;5.68;;;;;;;20.27;76.84;101153.25;5240390;28;20522;-78
2021/08/12 05:21:17;;;;;;;11.83;6.43;;;;;;;19.32;79.55;101159.41;5224115;28;20016;-77
2021/08/12 05:23:48;;;;;;;13.77;6.57;;;;;;;18.78;80.26;101157.41;5240376;28;20291;-79
2021/08/12 05:26:18;;;;;;;10.80;7.32;;;;;;;18.51;81.89;101170.59;5222874;28;20446;-80
2021/08/12 05:28:48;;;;;;;8.57;6.13;;;;;;;19.56;79.09;101157.84;5240601;28;20036;-80
2021/08/12 05:31:19;;;;;;;9.43;6.00;;;;;;;19.78;77.89;101163.47;5241343;28;20297;-80
2021/08/12 05:33:49;;;;;;;8.98;5.70;;;;;;;20.95;74.93;101168.91;5222626;28;20681;-76
2021/08/12 05:36:19;;;;;;;9.65;6.30;;;;;;;21.35;74.25;101159.84;5220504;28;20035;-78
2021/08/12 05:38:50;;;;;;;8.05;5.75;;;;;;;21.63;72.96;101162.28;5240312;28;20033;-78
2021/08/12 05:41:20;;;;;;;9.35;5.55;;;;;;;22.30;71.27;101157.25;5240312;28;20067;-79
2021/08/12 05:43:51;;;;;;;9.77;5.50;;;;;;;23.32;68.35;101152.81;5221188;28;20051;-79
2021/08/12 05:46:21;;;;;;;7.65;5.20;;;;;;;23.79;67.68;101141.88;5218352;28;20564;-79
2021/08/12 05:48:51;;;;;;;8.73;5.03;;;;;;;23.96;66.71;101144.06;5239853;28;20029;-80
2021/08/12 05:51:21;;;;;;;7.67;5.00;;;;;;;24.28;65.57;101144.06;5220655;28;20271;-81
2021/08/12 05:53:52;;;;;;;9.80;5.20;;;;;;;22.26;70.77;101152.28;5241083;28;20278;-80
2021/08/12 05:56:22;;;;;;;6.57;4.85;;;;;;;23.21;69.12;101142.13;5221973;28;20016;-79
2021/08/12 05:58:52;;;;;;;9.70;5.10;;;;;;;22.64;70.71;101139.59;5216824;28;20041;-78
2021/08/12 06:01:22;;;;;;;7.07;4.80;;;;;;;24.06;67.14;101136.97;5236558;28;20410;-77
2021/08/12 06:03:53;;;;;;;7.03;4.40;;;;;;;23.71;68.06;101143.47;5219683;28;20372;-77
2021/08/12 06:06:23;;;;;;;6.07;4.25;;;;;;;22.49;73.16;101144.28;5234903;28;20275;-79
2021/08/12 06:08:53;;;;;;;8.77;4.60;;;;;;;21.12;76.73;101148.19;5238148;28;20177;-80
2021/08/12 06:11:24;;;;;;;6.78;4.60;;;;;;;19.96;82.21;101149.03;5240334;28;20645;-80
2021/08/12 06:13:54;;;;;;;7.90;4.57;;;;;;;19.07;87.54;101143.25;5236862;28;20039;-78
2021/08/12 06:16:24;;;;;;;7.68;4.70;;;;;;;19.20;88.26;101141.59;5230564;28;20358;-78
2021/08/12 06:18:55;;;;;;;7.53;4.73;;;;;;;19.31;87.77;101143.56;5216513;28;20033;-78
2021/08/12 06:21:25;;;;;;;7.57;4.57;;;;;;;19.15;89.58;101137.47;5233019;28;20271;-79
2021/08/12 06:23:55;;;;;;;9.45;4.60;;;;;;;19.92;87.08;101144.03;5234109;28;20036;-78
2021/08/12 06:26:26;;;;;;;8.93;4.40;;;;;;;21.32;81.63;101139.66;5234938;28;20036;-78
2021/08/12 06:28:56;;;;;;;9.50;3.70;;;;;;;23.36;74.29;101129.44;5219447;28;20270;-79
2021/08/12 06:31:26;;;;;;;8.07;3.47;;;;;;;23.36;73.42;101132.94;5221797;28;20016;-79
2021/08/12 06:33:57;;;;;;;4.63;3.07;;;;;;;24.59;70.07;101132.53;5220410;28;20021;-79
2021/08/12 06:36:27;;;;;;;3.65;2.80;;;;;;;24.07;71.12;101136.00;5239294;28;20282;-79
2021/08/12 06:38:59;;;;;;;7.57;3.30;;;;;;;24.04;72.11;101133.56;5219518;28;20028;-79
2021/08/12 06:41:30;;;;;;;4.25;3.00;;;;;;;24.92;68.39;101130.50;5221862;28;20327;-79
2021/08/12 06:44:00;;;;;;;5.07;2.80;;;;;;;24.84;68.18;101133.81;5236214;28;20111;-79
2021/08/12 06:46:30;;;;;;;5.60;3.00;;;;;;;24.60;68.54;101127.06;5216016;28;20122;-79
2021/08/12 06:49:00;;;;;;;7.00;3.10;;;;;;;25.03;68.23;101122.41;5239998;28;20028;-79
2021/08/12 06:51:31;;;;;;;4.33;2.73;;;;;;;26.22;64.36;101115.19;5236667;28;20279;-79
2021/08/12 06:54:01;;;;;;;3.73;2.60;;;;;;;26.79;64.78;101108.81;5216825;28;20267;-79
2021/08/12 06:56:31;;;;;;;5.75;2.55;;;;;;;27.23;60.93;101099.22;5215858;28;20275;-79
2021/08/12 06:59:02;;;;;;;3.80;2.42;;;;;;;27.53;60.50;101097.13;5218658;28;20112;-79
2021/08/12 07:01:32;;;;;;;5.25;2.40;;;;;;;28.20;58.66;101102.06;5236425;28;20086;-80
2021/08/12 07:04:02;;;;;;;4.40;2.33;;;;;;;28.85;58.61;101107.84;5239825;28;20036;-79
2021/08/12 07:06:36;;;;;;;6.38;2.65;;;;;;;29.49;55.39;101110.97;5218266;28;20286;-79
2021/08/12 07:09:06;;;;;;;3.78;2.22;;;;;;;28.38;58.70;101101.09;5215007;28;20552;-79
2021/08/12 07:11:36;;;;;;;4.07;2.65;;;;;;;26.85;60.52;101110.06;5236220;28;20033;-79
2021/08/12 07:14:07;;;;;;;5.07;3.10;;;;;;;25.85;62.63;101116.84;5232729;28;20025;-79
2021/08/12 07:16:37;;;;;;;4.17;2.83;;;;;;;26.46;61.87;101115.59;5210125;28;20680;-79
2021/08/12 07:19:07;;;;;;;5.13;2.70;;;;;;;28.21;58.17;101110.00;5219643;28;20271;-79
2021/08/12 07:21:40;;;;;;;4.00;2.70;;;;;;;28.10;58.40;101117.44;5231956;28;20028;-79
2021/08/12 07:24:10;;;;;;;6.03;2.88;;;;;;;29.07;55.85;101118.97;5233502;28;20406;-79
2021/08/12 07:26:41;;;;;;;3.53;2.60;;;;;;;29.18;56.41;101117.84;5232040;28;20028;-79
2021/08/12 07:29:12;;;;;;;5.22;2.47;;;;;;;30.14;53.62;101123.66;5233587;28;20029;-79
2021/08/12 07:31:42;;;;;;;7.20;2.70;;;;;;;29.54;54.48;101124.81;5220887;28;20490;-79
2021/08/12 07:34:13;;;;;;;4.40;2.90;;;;;;;30.56;52.92;101119.81;5221438;28;20043;-80
2021/08/12 07:36:44;;;;;;;4.22;2.72;;;;;;;29.82;54.63;101112.75;5236821;28;20029;-80
2021/08/12 07:39:15;;;;;;;4.63;2.95;;;;;;;29.01;54.97;101116.06;5218584;28;20025;-80
2021/08/12 07:41:46;;;;;;;5.72;2.80;;;;;;;27.16;59.81;101125.84;5220701;28;20029;-80
2021/08/12 07:44:16;;;;;;;4.85;3.00;;;;;;;27.14;61.00;101127.81;5233500;28;20029;-80
2021/08/12 07:46:46;;;;;;;6.60;3.08;;;;;;;26.41;62.65;101133.97;5233178;28;20276;-79
2021/08/12 07:49:17;;;;;;;4.30;3.42;;;;;;;28.56;57.82;101115.38;5219307;28;20036;-79
2021/08/12 07:51:47;;;;;;;4.63;3.30;;;;;;;27.64;59.28;101120.25;5236432;28;20029;-80
2021/08/12 07:54:18;;;;;;;4.55;3.42;;;;;;;28.23;58.43;101124.13;5219635;28;20024;-80
2021/08/12 07:56:48;;;;;;;5.20;3.38;;;;;;;26.67;61.84;101127.06;5234673;28;20040;-80
2021/08/12 07:59:19;;;;;;;6.05;3.40;;;;;;;26.34;64.25;101125.63;5235833;28;20052;-79
2021/08/12 08:01:49;;;;;;;4.93;3.60;;;;;;;25.96;63.74;101127.44;5218443;28;20034;-79
2021/08/12 08:04:19;;;;;;;7.97;3.80;;;;;;;27.47;60.60;101119.19;5235808;28;20287;-79
2021/08/12 08:06:50;;;;;;;4.63;3.20;;;;;;;29.65;55.88;101111.88;5217600;28;20418;-79
2021/08/12 08:09:20;;;;;;;6.50;3.42;;;;;;;27.94;58.92;101117.28;5236032;28;20025;-79
2021/08/12 08:11:50;;;;;;;6.15;3.67;;;;;;;28.38;57.44;101117.25;5236075;28;20036;-80
2021/08/12 08:14:20;;;;;;;5.97;3.37;;;;;;;28.96;57.50;101107.63;5232307;28;20048;-80
2021/08/12 08:16:51;;;;;;;5.50;3.47;;;;;;;29.46;56.27;101113.94;5211078;28;20027;-80
2021/08/12 08:19:21;;;;;;;5.37;3.37;;;;;;;29.82;54.62;101104.66;5232885;28;20040;-80
2021/08/12 08:21:51;;;;;;;7.77;3.43;;;;;;;30.14;54.03;101107.47;5232020;28;20343;-80
2021/08/12 08:24:22;;;;;;;7.07;3.40;;;;;;;30.63;54.66;101104.63;5235122;28;20201;-80
2021/08/12 08:26:53;;;;;;;4.40;3.05;;;;;;;30.21;54.33;101106.63;5234798;28;20771;-80
2021/08/12 08:29:23;;;;;;;8.20;3.65;;;;;;;30.65;53.76;101112.59;5218110;28;20029;-80
2021/08/12 08:31:53;;;;;;;6.00;3.53;;;;;;;30.40;53.19;101108.19;5218122;28;20032;-79
2021/08/12 08:34:24;;;;;;;6.13;3.90;;;;;;;29.64;55.12;101109.34;5218701;28;20032;-79
2021/08/12 08:36:54;;;;;;;5.32;3.75;;;;;;;28.97;57.39;101110.16;5235560;28;20911;-79
2021/08/12 08:39:24;;;;;;;6.60;3.63;;;;;;;30.72;54.17;101109.03;5236468;28;20162;-80
2021/08/12 08:41:55;;;;;;;7.07;3.70;;;;;;;30.83;53.40;101110.53;5235741;28;20048;-80
2021/08/12 08:44:25;;;;;;;5.30;3.63;;;;;;;30.51;54.38;101110.53;5212829;28;20036;-80
2021/08/12 08:46:58;;;;;;;7.15;3.45;;;;;;;31.97;51.90;101108.97;5236136;28;20490;-80
2021/08/12 08:49:32;;;;;;;6.07;3.63;;;;;;;32.17;50.71;101108.38;5219777;28;20024;-80
2021/08/12 08:52:03;;;;;;;5.47;3.60;;;;;;;32.25;50.78;101100.16;5234552;28;20028;-80
2021/08/12 08:54:34;;;;;;;4.78;3.40;;;;;;;32.52;51.78;101106.91;5212223;28;20024;-80
2021/08/12 08:57:05;;;;;;;7.25;3.60;;;;;;;32.66;49.54;101106.94;5228803;28;20028;-80
2021/08/12 08:59:36;;;;;;;7.28;3.40;;;;;;;31.66;51.10;101106.28;5214043;28;20041;-79
2021/08/12 09:02:08;;;;;;;7.88;3.83;;;;;;;30.83;52.59;101114.91;5213607;28;20024;-80
2021/08/12 09:04:39;;;;;;;7.00;3.75;;;;;;;30.58;54.44;101101.63;5227552;28;20033;-79
2021/08/12 09:07:09;;;;;;;4.53;3.22;;;;;;;30.77;53.46;101100.44;5230295;28;20036;-79
2021/08/12 09:09:40;;;;;;;6.32;3.58;;;;;;;30.11;55.15;101097.03;5211842;28;20033;-79
2021/08/12 09:12:10;;;;;;;5.00;3.70;;;;;;;29.21;56.79;101096.00;5213762;28;20120;-80
2021/08/12 09:14:42;;;;;;;6.65;3.85;;;;;;;30.08;54.46;101091.97;5208798;28;20036;-79
2021/08/12 09:17:23;;;;;;;6.50;3.63;;;;;;;29.85;56.09;101086.31;5216143;28;20024;-79
2021/08/12 09:20:07;;;;;;;8.48;4.05;;;;;;;29.28;54.95;101097.88;5237459;28;20097;-79
2021/08/12 09:22:57;;;;;;;6.18;3.88;;;;;;;29.47;56.08;101084.19;5232370;28;20119;-79
2021/08/12 09:25:30;;;;;;;8.55;4.07;;;;;;;29.88;56.81;101083.28;5236449;28;20483;-79
2021/08/12 09:28:10;;;;;;;6.25;3.67;;;;;;;29.65;55.86;101074.16;5220897;28;20032;-79
2021/08/12 09:30:46;;;;;;;5.50;3.67;;;;;;;29.75;55.42;101072.13;5230810;28;20499;-78
2021/08/12 09:33:17;;;;;;;10.77;3.85;;;;;;;29.79;55.30;101075.34;5236469;28;20051;-79
2021/08/12 09:35:48;;;;;;;5.90;3.58;;;;;;;30.55;57.21;101076.78;5235373;28;20037;-79
2021/08/12 09:38:18;;;;;;;4.50;3.33;;;;;;;30.16;56.40;101081.16;5233287;28;20502;-79
2021/08/12 09:40:54;;;;;;;8.95;3.50;;;;;;;29.30;54.88;101078.84;5236370;28;20058;-79
2021/08/12 09:43:30;;;;;;;4.50;3.45;;;;;;;29.38;56.99;101076.22;5218084;28;20090;-79
2021/08/12 09:46:01;;;;;;;5.18;3.45;;;;;;;29.76;56.44;101075.69;5217111;28;20249;-79
2021/08/12 09:48:31;;;;;;;4.97;3.42;;;;;;;29.89;55.65;101076.06;5239221;28;20159;-79
2021/08/12 09:51:09;;;;;;;5.13;3.50;;;;;;;29.47;56.73;101070.72;5235130;28;20029;-79
2021/08/12 09:53:39;;;;;;;6.72;3.60;;;;;;;29.43;56.84;101068.47;5229094;28;20024;-79
2021/08/12 09:56:11;;;;;;;5.32;3.50;;;;;;;29.16;57.94;101076.75;5237517;28;20025;-79
2021/08/12 09:58:42;;;;;;;7.20;3.13;;;;;;;29.75;57.37;101068.59;5235697;28;20025;-79
2021/08/12 10:01:20;;;;;;;4.70;3.25;;;;;;;29.42;56.16;101062.22;5237617;28;20540;-79
2021/08/12 10:03:51;;;;;;;5.57;3.20;;;;;;;29.88;58.70;101068.97;5236606;28;20025;-79
2021/08/12 10:06:24;;;;;;;5.57;3.50;;;;;;;29.31;58.21;101064.38;5235890;28;20051;-79
2021/08/12 10:08:54;;;;;;;6.18;3.47;;;;;;;29.43;56.56;101068.47;5228676;28;20025;-79
2021/08/12 10:11:28;;;;;;;4.03;3.10;;;;;;;28.80;58.00;101069.78;5216536;28;20754;-79
2021/08/12 10:14:03;;;;;;;6.35;3.50;;;;;;;29.16;60.41;101074.06;5233920;28;20023;-79
2021/08/12 10:16:34;;;;;;;4.50;3.15;;;;;;;29.04;57.21;101061.91;5219932;28;20619;-79
2021/08/12 10:19:12;;;;;;;5.18;3.67;;;;;;;28.97;58.30;101071.63;5233702;28;20029;-79
2021/08/12 10:21:43;;;;;;;7.53;3.20;;;;;;;29.14;59.67;101068.00;5231477;28;20526;-79
2021/08/12 10:24:14;;;;;;;5.28;3.25;;;;;;;29.32;59.67;101056.16;5238521;28;20028;-79
2021/08/12 10:26:45;;;;;;;5.13;3.28;;;;;;;29.17;57.24;101063.16;5217589;28;20439;-79
2021/08/12 10:29:21;;;;;;;6.70;3.30;;;;;;;29.27;56.10;101057.63;5232713;28;20051;-79
2021/08/12 10:31:54;;;;;;;6.35;3.30;;;;;;;29.10;56.38;101050.47;5236465;28;20028;-79
2021/08/12 10:34:25;;;;;;;6.30;3.50;;;;;;;28.92;56.92;101055.09;5235999;28;20065;-79
2021/08/12 10:36:55;;;;;;;5.88;3.50;;;;;;;29.02;60.51;101045.91;5233745;28;20382;-79
2021/08/12 10:39:26;;;;;;;5.13;3.80;;;;;;;28.20;59.04;101056.34;5231467;28;20083;-78
2021/08/12 10:41:57;;;;;;;5.82;3.45;;;;;;;27.79;60.11;101044.38;5236688;28;20111;-79
2021/08/12 10:44:27;;;;;;;7.40;3.75;;;;;;;28.33;59.63;101044.22;5234300;28;20022;-79
2021/08/12 10:46:58;;;;;;;4.68;3.50;;;;;;;28.54;60.90;101036.66;5234515;28;20175;-80
2021/08/12 10:49:33;;;;;;;5.97;3.80;;;;;;;28.58;62.58;101038.03;5237708;28;20582;-80
2021/08/12 10:52:04;;;;;;;;;;;;;;;28.95;61.51;101031.41;5216318;28;20044;-80
2021/08/12 10:54:40;;;;;;;5.82;3.28;;;;;;;29.10;60.15;101023.56;5218100;28;19916;-79
2021/08/12 10:57:25;;;;;;;4.47;3.30;;;;;;;29.07;59.99;101034.66;5229684;28;20032;-80
2021/08/12 10:59:55;;;;;;;6.50;3.30;;;;;;;29.28;60.13;101027.00;5228937;28;20031;-79
2021/08/12 11:02:31;;;;;;;4.93;3.30;;;;;;;28.80;59.12;101032.97;5215277;28;20052;-79
2021/08/12 11:05:05;;;;;;;6.18;3.58;;;;;;;28.39;59.95;101035.53;5236644;28;20020;-78
2021/08/12 11:07:38;;;;;;;4.80;3.40;;;;;;;28.47;59.51;101040.97;5229232;28;20115;-79
2021/08/12 11:10:11;;;;;;;4.78;3.25;;;;;;;27.99;60.91;101040.53;5232567;28;20036;-80
2021/08/12 11:12:53;;;;;;;4.70;3.33;;;;;;;28.36;61.05;101027.78;5236645;28;20127;-79
2021/08/12 11:15:52;;;;;;;4.82;3.50;;;;;;;27.93;61.58;101032.25;5217197;28;20024;-79
2021/08/12 11:18:48;;;;;;;5.82;3.50;;;;;;;27.69;61.42;101031.97;5234532;28;20037;-79
2021/08/12 11:21:31;;;;;;;7.85;3.90;;;;;;;27.73;63.54;101030.69;5233487;28;20021;-79
2021/08/12 11:24:06;;;;;;;4.80;3.33;;;;;;;27.94;63.69;101024.03;5215852;28;20021;-79
2021/08/12 11:26:53;;;;;;;6.22;3.67;;;;;;;27.80;62.29;101029.09;5217323;28;20143;-79
2021/08/12 11:29:25;;;;;;;5.60;3.28;;;;;;;28.12;62.87;101024.84;5207441;28;20458;-79
2021/08/12 11:32:15;;;;;;;5.47;3.60;;;;;;;28.41;59.87;101017.41;5206989;28;20573;-78
2021/08/12 11:34:52;;;;;;;6.03;3.53;;;;;;;28.10;61.80;101029.56;5222792;28;20036;-79
2021/08/12 11:37:27;;;;;;;4.80;3.22;;;;;;;28.46;62.63;101023.16;5226556;28;20024;-80
2021/08/12 11:40:06;;;;;;;5.45;3.60;;;;;;;27.92;62.71;101034.09;5215308;28;20062;-79
2021/08/12 11:42:43;;;;;;;7.28;3.58;;;;;;;28.01;62.89;101033.19;5230459;28;20417;-80